sensor_id;sensor_type;location;lat;lon;timestamp;pressure;altitude;pressure_sealevel;temperature;humidity
4024;BME280;2026;51.002;13.668;2023-05-18T00:04:24;99892.34;;;9.16;69.74
4024;BME280;2026;51.002;13.668;2023-05-18T00:09:29;99895.03;;;9.07;70.01
4024;BME280;2026;51.002;13.668;2023-05-18T00:14:32;99900.72;;;8.96;71.18
4024;BME280;2026;51.002;13.668;2023-05-18T00:19:36;99899.72;;;8.82;71.96
4024;BME280;2026;51.002;13.668;2023-05-18T00:24:41;99908.09;;;8.77;72.01
4024;BME280;2026;51.002;13.668;2023-05-18T00:29:44;99912.25;;;8.72;72.73
4024;BME280;2026;51.002;13.668;2023-05-18T00:34:48;99910.25;;;8.74;72.93
4024;BME280;2026;51.002;13.668;2023-05-18T00:39:51;99906.91;;;8.65;72.62
4024;BME280;2026;51.002;13.668;2023-05-18T00:44:54;99910.19;;;8.44;74.20
4024;BME280;2026;51.002;13.668;2023-05-18T00:49:58;99917.16;;;8.51;73.54
4024;BME280;2026;51.002;13.668;2023-05-18T00:55:02;99917.16;;;8.51;73.31
4024;BME280;2026;51.002;13.668;2023-05-18T01:00:06;99919.78;;;8.28;75.42
4024;BME280;2026;51.002;13.668;2023-05-18T01:05:12;99927.63;;;8.28;74.64
4024;BME280;2026;51.002;13.668;2023-05-18T01:10:18;99932.78;;;8.13;76.11
4024;BME280;2026;51.002;13.668;2023-05-18T01:15:25;99929.72;;;8.09;76.54
4024;BME280;2026;51.002;13.668;2023-05-18T01:20:37;99929.94;;;7.99;77.24
4024;BME280;2026;51.002;13.668;2023-05-18T01:25:50;99928.88;;;7.85;76.97
4024;BME280;2026;51.002;13.668;2023-05-18T01:30:57;99932.88;;;7.65;78.26
4024;BME280;2026;51.002;13.668;2023-05-18T01:36:00;99940.25;;;7.61;78.69
4024;BME280;2026;51.002;13.668;2023-05-18T01:41:17;99932.41;;;7.61;78.25
4024;BME280;2026;51.002;13.668;2023-05-18T01:46:31;99939.13;;;7.55;78.58
4024;BME280;2026;51.002;13.668;2023-05-18T01:51:38;99931.97;;;7.49;78.71
4024;BME280;2026;51.002;13.668;2023-05-18T01:56:43;99944.56;;;7.45;79.27
4024;BME280;2026;51.002;13.668;2023-05-18T02:01:49;99938.25;;;7.31;79.84
4024;BME280;2026;51.002;13.668;2023-05-18T02:07:00;99943.78;;;7.28;79.98
4024;BME280;2026;51.002;13.668;2023-05-18T02:12:04;99944.13;;;7.25;79.95
4024;BME280;2026;51.002;13.668;2023-05-18T02:17:09;99942.84;;;7.13;80.93
4024;BME280;2026;51.002;13.668;2023-05-18T02:22:12;99944.97;;;7.09;80.69
4024;BME280;2026;51.002;13.668;2023-05-18T02:27:15;99944.31;;;7.07;81.29
4024;BME280;2026;51.002;13.668;2023-05-18T02:32:19;99949.56;;;6.82;81.52
4024;BME280;2026;51.002;13.668;2023-05-18T02:37:22;99954.78;;;6.82;82.15
4024;BME280;2026;51.002;13.668;2023-05-18T02:42:25;99953.78;;;6.75;82.51
4024;BME280;2026;51.002;13.668;2023-05-18T02:47:30;99956.56;;;6.73;82.53
4024;BME280;2026;51.002;13.668;2023-05-18T02:52:33;99962.94;;;6.71;82.47
4024;BME280;2026;51.002;13.668;2023-05-18T02:57:36;99966.34;;;6.71;82.14
4024;BME280;2026;51.002;13.668;2023-05-18T03:02:42;99962.09;;;6.54;82.69
4024;BME280;2026;51.002;13.668;2023-05-18T03:07:49;99965.50;;;6.62;81.87
4024;BME280;2026;51.002;13.668;2023-05-18T03:12:54;99969.94;;;6.45;82.72
4024;BME280;2026;51.002;13.668;2023-05-18T03:17:58;99973.66;;;6.51;82.60
4024;BME280;2026;51.002;13.668;2023-05-18T03:23:03;99979.38;;;6.55;82.62
4024;BME280;2026;51.002;13.668;2023-05-18T03:28:07;99984.25;;;6.58;82.47
4024;BME280;2026;51.002;13.668;2023-05-18T03:33:11;99978.88;;;6.51;82.81
4024;BME280;2026;51.002;13.668;2023-05-18T03:38:15;99983.09;;;6.44;83.32
4024;BME280;2026;51.002;13.668;2023-05-18T03:43:23;99983.44;;;6.41;83.27
4024;BME280;2026;51.002;13.668;2023-05-18T03:48:29;99990.91;;;6.35;83.61
4024;BME280;2026;51.002;13.668;2023-05-18T03:53:32;99998.56;;;6.37;83.46
4024;BME280;2026;51.002;13.668;2023-05-18T03:58:36;99995.13;;;6.37;83.98
4024;BME280;2026;51.002;13.668;2023-05-18T04:03:41;99989.94;;;6.53;83.86
4024;BME280;2026;51.002;13.668;2023-05-18T04:08:44;100002.31;;;6.43;84.84
4024;BME280;2026;51.002;13.668;2023-05-18T04:13:47;100003.78;;;6.37;85.74
4024;BME280;2026;51.002;13.668;2023-05-18T04:18:52;100016.53;;;6.98;83.32
4024;BME280;2026;51.002;13.668;2023-05-18T04:23:55;100013.25;;;7.13;81.49
4024;BME280;2026;51.002;13.668;2023-05-18T04:29:00;100013.06;;;7.39;81.43
4024;BME280;2026;51.002;13.668;2023-05-18T04:34:05;100021.69;;;7.48;80.87
4024;BME280;2026;51.002;13.668;2023-05-18T04:39:09;100015.69;;;8.19;79.08
4024;BME280;2026;51.002;13.668;2023-05-18T04:44:13;100015.53;;;8.91;76.82
4024;BME280;2026;51.002;13.668;2023-05-18T04:49:17;100014.63;;;9.82;73.55
4024;BME280;2026;51.002;13.668;2023-05-18T04:54:23;100018.44;;;11.04;70.37
4024;BME280;2026;51.002;13.668;2023-05-18T04:59:26;100026.53;;;11.66;66.12
4024;BME280;2026;51.002;13.668;2023-05-18T05:04:30;100019.66;;;12.14;63.78
4024;BME280;2026;51.002;13.668;2023-05-18T05:09:33;100017.94;;;12.95;61.13
4024;BME280;2026;51.002;13.668;2023-05-18T05:14:37;100030.31;;;13.08;59.80
4024;BME280;2026;51.002;13.668;2023-05-18T05:19:41;100033.75;;;13.15;59.64
4024;BME280;2026;51.002;13.668;2023-05-18T05:24:44;100034.00;;;13.86;56.51
4024;BME280;2026;51.002;13.668;2023-05-18T05:29:47;100032.31;;;14.38;55.05
4024;BME280;2026;51.002;13.668;2023-05-18T05:34:53;100029.53;;;14.65;53.89
4024;BME280;2026;51.002;13.668;2023-05-18T05:39:56;100041.63;;;14.01;55.26
4024;BME280;2026;51.002;13.668;2023-05-18T05:45:00;100020.75;;;14.96;52.06
4024;BME280;2026;51.002;13.668;2023-05-18T05:50:08;100033.03;;;14.84;53.11
4024;BME280;2026;51.002;13.668;2023-05-18T05:55:12;100031.75;;;14.68;52.25
4024;BME280;2026;51.002;13.668;2023-05-18T06:00:16;100038.09;;;14.60;53.22
4024;BME280;2026;51.002;13.668;2023-05-18T06:05:23;100037.63;;;15.58;51.00
4024;BME280;2026;51.002;13.668;2023-05-18T06:10:27;100028.69;;;16.39;49.79
4024;BME280;2026;51.002;13.668;2023-05-18T06:15:32;100037.03;;;16.12;48.41
4024;BME280;2026;51.002;13.668;2023-05-18T06:20:37;100037.06;;;16.67;47.15
4024;BME280;2026;51.002;13.668;2023-05-18T06:25:41;100042.03;;;16.75;45.95
4024;BME280;2026;51.002;13.668;2023-05-18T06:31:07;100054.75;;;15.11;48.08
4024;BME280;2026;51.002;13.668;2023-05-18T06:36:21;100052.88;;;15.37;48.91
4024;BME280;2026;51.002;13.668;2023-05-18T06:41:24;100060.56;;;14.95;48.76
4024;BME280;2026;51.002;13.668;2023-05-18T06:46:27;100054.53;;;15.76;47.95
4024;BME280;2026;51.002;13.668;2023-05-18T06:51:35;100078.56;;;14.79;48.70
4024;BME280;2026;51.002;13.668;2023-05-18T06:56:39;100080.00;;;13.97;49.68
4024;BME280;2026;51.002;13.668;2023-05-18T07:01:43;100083.19;;;14.06;53.19
4024;BME280;2026;51.002;13.668;2023-05-18T07:06:50;100085.97;;;12.98;51.95
4024;BME280;2026;51.002;13.668;2023-05-18T07:11:54;100080.72;;;12.16;54.04
4024;BME280;2026;51.002;13.668;2023-05-18T07:16:57;100080.31;;;13.55;51.24
4024;BME280;2026;51.002;13.668;2023-05-18T07:22:01;100072.56;;;15.60;46.87
4024;BME280;2026;51.002;13.668;2023-05-18T07:27:05;100071.38;;;15.37;48.67
4024;BME280;2026;51.002;13.668;2023-05-18T07:32:08;100061.00;;;14.92;46.69
4024;BME280;2026;51.002;13.668;2023-05-18T07:37:12;100063.88;;;14.12;48.32
4024;BME280;2026;51.002;13.668;2023-05-18T07:42:15;100057.28;;;14.35;48.74
4024;BME280;2026;51.002;13.668;2023-05-18T07:47:18;100064.19;;;14.36;47.32
4024;BME280;2026;51.002;13.668;2023-05-18T07:52:23;100071.03;;;14.51;46.20
4024;BME280;2026;51.002;13.668;2023-05-18T07:57:26;100068.28;;;14.96;46.10
4024;BME280;2026;51.002;13.668;2023-05-18T08:02:31;100059.72;;;15.26;45.94
4024;BME280;2026;51.002;13.668;2023-05-18T08:07:36;100071.34;;;13.63;48.50
4024;BME280;2026;51.002;13.668;2023-05-18T08:12:39;100064.69;;;13.54;47.90
4024;BME280;2026;51.002;13.668;2023-05-18T08:17:42;100068.28;;;14.25;46.10
4024;BME280;2026;51.002;13.668;2023-05-18T08:22:48;100051.47;;;15.79;43.47
4024;BME280;2026;51.002;13.668;2023-05-18T08:27:51;100062.31;;;13.12;47.33
4024;BME280;2026;51.002;13.668;2023-05-18T08:32:54;100055.59;;;12.96;48.79
4024;BME280;2026;51.002;13.668;2023-05-18T08:37:59;100046.16;;;13.81;47.59
4024;BME280;2026;51.002;13.668;2023-05-18T08:43:10;100044.84;;;14.03;45.88
4024;BME280;2026;51.002;13.668;2023-05-18T08:48:15;100052.47;;;14.25;46.13
4024;BME280;2026;51.002;13.668;2023-05-18T08:53:20;100053.69;;;13.70;46.21
4024;BME280;2026;51.002;13.668;2023-05-18T08:58:31;100060.94;;;14.73;45.02
4024;BME280;2026;51.002;13.668;2023-05-18T09:03:36;100046.34;;;14.96;44.17
4024;BME280;2026;51.002;13.668;2023-05-18T09:08:42;100045.28;;;14.39;47.86
4024;BME280;2026;51.002;13.668;2023-05-18T09:13:47;100049.38;;;13.89;48.11
4024;BME280;2026;51.002;13.668;2023-05-18T09:18:51;100045.34;;;15.60;45.51
4024;BME280;2026;51.002;13.668;2023-05-18T09:23:55;100039.34;;;15.90;43.08
4024;BME280;2026;51.002;13.668;2023-05-18T09:28:58;100043.50;;;15.23;46.93
4024;BME280;2026;51.002;13.668;2023-05-18T09:34:02;100042.75;;;14.19;47.67
4024;BME280;2026;51.002;13.668;2023-05-18T09:39:09;100036.81;;;13.85;47.41
4024;BME280;2026;51.002;13.668;2023-05-18T09:44:12;100043.47;;;14.72;47.60
4024;BME280;2026;51.002;13.668;2023-05-18T09:49:20;100032.56;;;15.38;46.72
4024;BME280;2026;51.002;13.668;2023-05-18T09:54:24;100045.28;;;14.46;49.41
4024;BME280;2026;51.002;13.668;2023-05-18T09:59:28;100048.88;;;14.13;46.63
4024;BME280;2026;51.002;13.668;2023-05-18T10:04:36;100031.34;;;14.90;46.45
4024;BME280;2026;51.002;13.668;2023-05-18T10:09:41;100030.09;;;14.99;44.97
4024;BME280;2026;51.002;13.668;2023-05-18T10:14:45;100028.22;;;15.25;48.19
4024;BME280;2026;51.002;13.668;2023-05-18T10:19:50;100025.06;;;16.52;43.33
4024;BME280;2026;51.002;13.668;2023-05-18T10:24:58;100023.31;;;14.78;44.96
4024;BME280;2026;51.002;13.668;2023-05-18T10:30:07;100012.84;;;15.15;43.79
4024;BME280;2026;51.002;13.668;2023-05-18T10:35:10;100015.72;;;15.13;42.87
4024;BME280;2026;51.002;13.668;2023-05-18T10:40:16;100013.13;;;15.70;46.02
4024;BME280;2026;51.002;13.668;2023-05-18T10:45:19;100003.50;;;16.25;41.99
4024;BME280;2026;51.002;13.668;2023-05-18T10:50:22;100000.91;;;15.50;44.11
4024;BME280;2026;51.002;13.668;2023-05-18T10:55:26;100002.44;;;16.26;43.32
4024;BME280;2026;51.002;13.668;2023-05-18T11:00:33;100009.69;;;15.06;44.14
4024;BME280;2026;51.002;13.668;2023-05-18T11:05:39;100003.13;;;15.16;43.36
4024;BME280;2026;51.002;13.668;2023-05-18T11:10:44;99993.81;;;15.50;44.26
4024;BME280;2026;51.002;13.668;2023-05-18T11:16:06;99991.97;;;15.32;44.03
4024;BME280;2026;51.002;13.668;2023-05-18T11:21:30;99988.50;;;15.13;44.24
4024;BME280;2026;51.002;13.668;2023-05-18T11:26:54;99981.69;;;15.43;43.24
4024;BME280;2026;51.002;13.668;2023-05-18T11:31:58;99975.66;;;15.35;44.11
4024;BME280;2026;51.002;13.668;2023-05-18T11:37:02;99974.50;;;16.30;42.84
4024;BME280;2026;51.002;13.668;2023-05-18T11:42:08;99974.97;;;15.96;43.12
4024;BME280;2026;51.002;13.668;2023-05-18T11:47:11;99975.53;;;16.29;42.06
4024;BME280;2026;51.002;13.668;2023-05-18T11:52:18;99973.34;;;16.26;43.08
4024;BME280;2026;51.002;13.668;2023-05-18T11:57:25;99976.84;;;16.62;40.60
4024;BME280;2026;51.002;13.668;2023-05-18T12:02:30;99972.31;;;15.47;41.96
4024;BME280;2026;51.002;13.668;2023-05-18T12:07:35;99962.22;;;16.47;42.61
4024;BME280;2026;51.002;13.668;2023-05-18T12:12:40;99961.66;;;17.17;41.53
4024;BME280;2026;51.002;13.668;2023-05-18T12:17:45;99957.34;;;16.32;40.47
4024;BME280;2026;51.002;13.668;2023-05-18T12:22:50;99951.91;;;17.06;40.09
4024;BME280;2026;51.002;13.668;2023-05-18T12:27:56;99955.00;;;16.12;41.35
4024;BME280;2026;51.002;13.668;2023-05-18T12:32:59;99950.03;;;16.58;42.67
4024;BME280;2026;51.002;13.668;2023-05-18T12:38:03;99954.41;;;17.24;41.13
4024;BME280;2026;51.002;13.668;2023-05-18T12:43:07;99945.63;;;15.67;42.78
4024;BME280;2026;51.002;13.668;2023-05-18T12:48:11;99957.91;;;16.22;42.77
4024;BME280;2026;51.002;13.668;2023-05-18T12:53:16;99958.63;;;16.42;41.73
4024;BME280;2026;51.002;13.668;2023-05-18T12:58:21;99952.34;;;16.90;41.08
4024;BME280;2026;51.002;13.668;2023-05-18T13:03:23;99944.63;;;16.65;42.46
4024;BME280;2026;51.002;13.668;2023-05-18T13:08:27;99944.81;;;16.28;42.14
4024;BME280;2026;51.002;13.668;2023-05-18T13:13:31;99935.72;;;15.62;44.72
4024;BME280;2026;51.002;13.668;2023-05-18T13:18:34;99939.22;;;17.61;40.28
4024;BME280;2026;51.002;13.668;2023-05-18T13:23:37;99939.38;;;17.71;41.12
4024;BME280;2026;51.002;13.668;2023-05-18T13:28:42;99943.94;;;16.58;43.40
4024;BME280;2026;51.002;13.668;2023-05-18T13:33:46;99942.69;;;16.60;42.59
4024;BME280;2026;51.002;13.668;2023-05-18T13:38:49;99935.03;;;16.28;41.32
4024;BME280;2026;51.002;13.668;2023-05-18T13:43:54;99935.03;;;17.36;41.52
4024;BME280;2026;51.002;13.668;2023-05-18T13:48:57;99934.38;;;16.45;42.42
4024;BME280;2026;51.002;13.668;2023-05-18T13:54:00;99938.16;;;16.61;42.08
4024;BME280;2026;51.002;13.668;2023-05-18T13:59:04;99926.19;;;17.18;40.68
4024;BME280;2026;51.002;13.668;2023-05-18T14:04:07;99933.41;;;17.64;40.46
4024;BME280;2026;51.002;13.668;2023-05-18T14:09:10;99930.91;;;16.32;41.74
4024;BME280;2026;51.002;13.668;2023-05-18T14:14:14;99933.78;;;16.55;41.48
4024;BME280;2026;51.002;13.668;2023-05-18T14:19:17;99931.91;;;16.19;43.91
4024;BME280;2026;51.002;13.668;2023-05-18T14:24:20;99928.19;;;16.99;41.13
4024;BME280;2026;51.002;13.668;2023-05-18T14:29:25;99930.34;;;17.14;41.58
4024;BME280;2026;51.002;13.668;2023-05-18T14:34:27;99930.19;;;16.25;42.60
4024;BME280;2026;51.002;13.668;2023-05-18T14:39:30;99924.25;;;16.77;42.06
4024;BME280;2026;51.002;13.668;2023-05-18T14:44:35;99920.69;;;15.93;41.78
4024;BME280;2026;51.002;13.668;2023-05-18T14:49:38;99916.84;;;15.77;42.93
4024;BME280;2026;51.002;13.668;2023-05-18T14:54:41;99918.72;;;15.89;42.40
4024;BME280;2026;51.002;13.668;2023-05-18T14:59:46;99919.53;;;15.89;43.09
4024;BME280;2026;51.002;13.668;2023-05-18T15:04:49;99913.16;;;16.09;42.81
4024;BME280;2026;51.002;13.668;2023-05-18T15:09:52;99908.09;;;15.77;43.33
4024;BME280;2026;51.002;13.668;2023-05-18T15:14:57;99908.44;;;16.23;41.04
4024;BME280;2026;51.002;13.668;2023-05-18T15:20:00;99911.25;;;16.40;41.08
4024;BME280;2026;51.002;13.668;2023-05-18T15:25:04;99914.78;;;16.22;41.35
4024;BME280;2026;51.002;13.668;2023-05-18T15:30:10;99902.25;;;16.41;41.54
4024;BME280;2026;51.002;13.668;2023-05-18T15:35:13;99902.59;;;16.33;40.60
4024;BME280;2026;51.002;13.668;2023-05-18T15:40:17;99895.25;;;16.71;40.92
4024;BME280;2026;51.002;13.668;2023-05-18T15:45:21;99892.03;;;16.57;41.20
4024;BME280;2026;51.002;13.668;2023-05-18T15:50:25;99895.72;;;16.56;41.52
4024;BME280;2026;51.002;13.668;2023-05-18T15:55:27;99887.50;;;16.33;42.11
4024;BME280;2026;51.002;13.668;2023-05-18T16:00:32;99890.13;;;16.10;42.65
4024;BME280;2026;51.002;13.668;2023-05-18T16:05:35;99890.16;;;16.21;42.03
4024;BME280;2026;51.002;13.668;2023-05-18T16:10:38;99885.78;;;16.27;41.96
4024;BME280;2026;51.002;13.668;2023-05-18T16:15:43;99880.84;;;15.76;42.68
4024;BME280;2026;51.002;13.668;2023-05-18T16:20:47;99884.94;;;16.03;42.90
4024;BME280;2026;51.002;13.668;2023-05-18T16:25:50;99877.81;;;16.15;42.21
4024;BME280;2026;51.002;13.668;2023-05-18T16:30:54;99872.63;;;15.97;43.48
4024;BME280;2026;51.002;13.668;2023-05-18T16:35:57;99872.91;;;16.31;42.84
4024;BME280;2026;51.002;13.668;2023-05-18T16:41:00;99878.38;;;15.93;42.70
4024;BME280;2026;51.002;13.668;2023-05-18T16:46:04;99867.50;;;16.61;42.13
4024;BME280;2026;51.002;13.668;2023-05-18T16:51:07;99880.88;;;15.88;43.90
4024;BME280;2026;51.002;13.668;2023-05-18T16:56:10;99875.44;;;16.26;42.26
4024;BME280;2026;51.002;13.668;2023-05-18T17:01:15;99863.25;;;16.60;41.98
4024;BME280;2026;51.002;13.668;2023-05-18T17:06:28;99863.91;;;15.65;44.08
4024;BME280;2026;51.002;13.668;2023-05-18T17:11:31;99859.88;;;15.93;44.25
4024;BME280;2026;51.002;13.668;2023-05-18T17:16:36;99877.91;;;15.97;40.07
4024;BME280;2026;51.002;13.668;2023-05-18T17:21:41;99876.34;;;15.77;40.83
4024;BME280;2026;51.002;13.668;2023-05-18T17:26:44;99873.03;;;15.51;41.54
4024;BME280;2026;51.002;13.668;2023-05-18T17:31:48;99875.34;;;15.59;40.91
4024;BME280;2026;51.002;13.668;2023-05-18T17:36:51;99878.84;;;15.41;41.27
4024;BME280;2026;51.002;13.668;2023-05-18T17:41:55;99880.84;;;15.27;41.49
4024;BME280;2026;51.002;13.668;2023-05-18T17:47:02;99885.91;;;15.29;41.65
4024;BME280;2026;51.002;13.668;2023-05-18T17:52:05;99882.84;;;15.13;42.39
4024;BME280;2026;51.002;13.668;2023-05-18T17:57:09;99882.34;;;15.23;43.35
4024;BME280;2026;51.002;13.668;2023-05-18T18:02:13;99872.97;;;15.39;42.02
4024;BME280;2026;51.002;13.668;2023-05-18T18:07:16;99883.78;;;15.19;42.51
4024;BME280;2026;51.002;13.668;2023-05-18T18:12:19;99883.94;;;14.87;44.02
4024;BME280;2026;51.002;13.668;2023-05-18T18:17:23;99889.81;;;14.70;43.76
4024;BME280;2026;51.002;13.668;2023-05-18T18:22:27;99894.97;;;14.33;45.11
4024;BME280;2026;51.002;13.668;2023-05-18T18:27:29;99883.34;;;14.66;44.91
4024;BME280;2026;51.002;13.668;2023-05-18T18:32:34;99887.38;;;14.68;44.42
4024;BME280;2026;51.002;13.668;2023-05-18T18:37:37;99890.44;;;14.40;45.53
4024;BME280;2026;51.002;13.668;2023-05-18T18:42:40;99889.63;;;14.46;45.23
4024;BME280;2026;51.002;13.668;2023-05-18T18:47:44;99892.34;;;14.58;45.10
4024;BME280;2026;51.002;13.668;2023-05-18T18:52:47;99895.03;;;14.51;45.46
4024;BME280;2026;51.002;13.668;2023-05-18T18:57:51;99897.31;;;14.41;46.48
4024;BME280;2026;51.002;13.668;2023-05-18T19:02:55;99905.97;;;14.29;46.50
4024;BME280;2026;51.002;13.668;2023-05-18T19:07:58;99902.22;;;14.37;46.38
4024;BME280;2026;51.002;13.668;2023-05-18T19:13:02;99902.69;;;14.27;46.81
4024;BME280;2026;51.002;13.668;2023-05-18T19:18:08;99910.03;;;14.25;47.14
4024;BME280;2026;51.002;13.668;2023-05-18T19:23:11;99915.75;;;14.22;47.41
4024;BME280;2026;51.002;13.668;2023-05-18T19:28:14;99924.69;;;14.21;48.04
4024;BME280;2026;51.002;13.668;2023-05-18T19:33:18;99932.75;;;14.26;47.53
4024;BME280;2026;51.002;13.668;2023-05-18T19:38:21;99935.69;;;14.11;48.29
4024;BME280;2026;51.002;13.668;2023-05-18T19:43:24;99938.72;;;14.15;48.31
4024;BME280;2026;51.002;13.668;2023-05-18T19:48:29;99941.22;;;14.03;48.80
4024;BME280;2026;51.002;13.668;2023-05-18T19:53:32;99949.84;;;14.17;48.85
4024;BME280;2026;51.002;13.668;2023-05-18T19:58:35;99951.91;;;14.15;49.52
4024;BME280;2026;51.002;13.668;2023-05-18T20:03:39;99952.78;;;14.02;49.83
4024;BME280;2026;51.002;13.668;2023-05-18T20:08:44;99948.56;;;13.94;51.08
4024;BME280;2026;51.002;13.668;2023-05-18T20:13:47;99948.44;;;13.82;51.33
4024;BME280;2026;51.002;13.668;2023-05-18T20:18:51;99948.22;;;13.84;51.52
4024;BME280;2026;51.002;13.668;2023-05-18T20:23:54;99955.38;;;13.70;52.49
4024;BME280;2026;51.002;13.668;2023-05-18T20:28:57;99948.47;;;13.69;52.59
4024;BME280;2026;51.002;13.668;2023-05-18T20:34:01;99958.63;;;13.65;54.66
4024;BME280;2026;51.002;13.668;2023-05-18T20:39:04;99965.59;;;13.53;56.53
4024;BME280;2026;51.002;13.668;2023-05-18T20:44:08;99959.72;;;13.51;56.25
4024;BME280;2026;51.002;13.668;2023-05-18T20:49:13;99953.66;;;13.43;57.01
4024;BME280;2026;51.002;13.668;2023-05-18T20:54:16;99961.59;;;13.30;57.50
4024;BME280;2026;51.002;13.668;2023-05-18T20:59:19;99954.09;;;13.27;57.94
4024;BME280;2026;51.002;13.668;2023-05-18T21:04:23;99952.53;;;13.12;58.84
4024;BME280;2026;51.002;13.668;2023-05-18T21:09:26;99956.00;;;13.06;59.87
4024;BME280;2026;51.002;13.668;2023-05-18T21:14:31;99952.72;;;12.97;60.36
4024;BME280;2026;51.002;13.668;2023-05-18T21:19:36;99940.78;;;12.94;60.94
4024;BME280;2026;51.002;13.668;2023-05-18T21:24:39;99952.13;;;12.82;60.57
4024;BME280;2026;51.002;13.668;2023-05-18T21:29:42;99943.44;;;12.81;60.78
4024;BME280;2026;51.002;13.668;2023-05-18T21:34:46;99941.41;;;12.70;61.65
4024;BME280;2026;51.002;13.668;2023-05-18T21:39:49;99935.94;;;12.58;62.15
4024;BME280;2026;51.002;13.668;2023-05-18T21:44:52;99930.88;;;12.56;62.74
4024;BME280;2026;51.002;13.668;2023-05-18T21:49:56;99932.09;;;12.47;63.48
4024;BME280;2026;51.002;13.668;2023-05-18T21:54:59;99931.91;;;12.62;63.23
4024;BME280;2026;51.002;13.668;2023-05-18T22:00:03;99936.97;;;12.63;63.77
4024;BME280;2026;51.002;13.668;2023-05-18T22:05:28;99934.56;;;12.62;63.90
4024;BME280;2026;51.002;13.668;2023-05-18T22:10:31;99928.66;;;12.53;63.89
4024;BME280;2026;51.002;13.668;2023-05-18T22:15:35;99927.28;;;12.57;63.04
4024;BME280;2026;51.002;13.668;2023-05-18T22:20:39;99928.88;;;12.45;64.00
4024;BME280;2026;51.002;13.668;2023-05-18T22:25:42;99926.25;;;12.45;63.92
4024;BME280;2026;51.002;13.668;2023-05-18T22:30:45;99917.53;;;12.44;64.16
4024;BME280;2026;51.002;13.668;2023-05-18T22:35:50;99928.47;;;12.41;65.31
4024;BME280;2026;51.002;13.668;2023-05-18T22:40:53;99912.69;;;12.34;65.23
4024;BME280;2026;51.002;13.668;2023-05-18T22:45:56;99917.31;;;12.32;65.57
4024;BME280;2026;51.002;13.668;2023-05-18T22:51:00;99914.28;;;12.22;65.28
4024;BME280;2026;51.002;13.668;2023-05-18T22:56:05;99916.50;;;12.25;65.85
4024;BME280;2026;51.002;13.668;2023-05-18T23:01:08;99915.31;;;12.14;66.15
4024;BME280;2026;51.002;13.668;2023-05-18T23:06:12;99913.06;;;12.11;66.68
4024;BME280;2026;51.002;13.668;2023-05-18T23:11:15;99907.81;;;12.11;66.72
4024;BME280;2026;51.002;13.668;2023-05-18T23:16:19;99907.22;;;12.16;66.88
4024;BME280;2026;51.002;13.668;2023-05-18T23:21:24;99915.28;;;12.07;66.49
4024;BME280;2026;51.002;13.668;2023-05-18T23:26:27;99915.50;;;12.06;68.30
4024;BME280;2026;51.002;13.668;2023-05-18T23:31:30;99910.81;;;12.01;68.94
4024;BME280;2026;51.002;13.668;2023-05-18T23:36:35;99915.06;;;11.89;69.84
4024;BME280;2026;51.002;13.668;2023-05-18T23:41:40;99927.19;;;11.90;69.72
4024;BME280;2026;51.002;13.668;2023-05-18T23:46:44;99921.09;;;11.82;70.32
4024;BME280;2026;51.002;13.668;2023-05-18T23:51:50;99906.34;;;11.81;70.41
4024;BME280;2026;51.002;13.668;2023-05-18T23:56:54;99908.16;;;11.74;70.18
